sensor_id;sensor_type;location;lat;lon;timestamp;pressure;altitude;pressure_sealevel;temperature;humidity
48390;BME280;34643;47.964;7.982;2023-01-27T00:04:35;96795.72;;;15.69;57.16
48390;BME280;34643;47.964;7.982;2023-01-27T00:09:36;96790.72;;;15.66;57.25
48390;BME280;34643;47.964;7.982;2023-01-27T00:14:36;96788.84;;;15.68;57.23
48390;BME280;34643;47.964;7.982;2023-01-27T00:19:36;96789.56;;;15.70;57.25
48390;BME280;34643;47.964;7.982;2023-01-27T00:24:37;96792.16;;;15.70;57.26
48390;BME280;34643;47.964;7.982;2023-01-27T00:29:37;96790.31;;;15.72;57.23
48390;BME280;34643;47.964;7.982;2023-01-27T00:34:38;96781.56;;;15.73;57.09
48390;BME280;34643;47.964;7.982;2023-01-27T00:39:40;96779.06;;;15.72;57.18
48390;BME280;34643;47.964;7.982;2023-01-27T00:44:43;96777.09;;;15.75;57.12
48390;BME280;34643;47.964;7.982;2023-01-27T00:50:03;96774.81;;;15.71;57.27
48390;BME280;34643;47.964;7.982;2023-01-27T00:55:04;96779.78;;;15.74;56.98
48390;BME280;34643;47.964;7.982;2023-01-27T01:00:05;96786.13;;;15.70;57.35
48390;BME280;34643;47.964;7.982;2023-01-27T01:05:05;96779.06;;;15.72;57.34
48390;BME280;34643;47.964;7.982;2023-01-27T01:10:06;96791.34;;;15.70;57.42
48390;BME280;34643;47.964;7.982;2023-01-27T01:15:06;96783.44;;;15.71;57.29
48390;BME280;34643;47.964;7.982;2023-01-27T01:20:07;96793.13;;;15.69;57.28
48390;BME280;34643;47.964;7.982;2023-01-27T01:25:08;96788.84;;;15.68;57.32
48390;BME280;34643;47.964;7.982;2023-01-27T01:30:08;96791.78;;;15.64;57.39
48390;BME280;34643;47.964;7.982;2023-01-27T01:35:09;96791.53;;;15.67;57.27
48390;BME280;34643;47.964;7.982;2023-01-27T01:40:09;96780.31;;;15.66;57.27
48390;BME280;34643;47.964;7.982;2023-01-27T01:50:30;96768.34;;;15.64;57.36
48390;BME280;34643;47.964;7.982;2023-01-27T01:55:31;96754.63;;;15.62;57.35
48390;BME280;34643;47.964;7.982;2023-01-27T02:00:33;96758.78;;;15.64;57.40
48390;BME280;34643;47.964;7.982;2023-01-27T02:05:34;96745.03;;;15.62;57.33
48390;BME280;34643;47.964;7.982;2023-01-27T02:10:35;96743.34;;;15.61;57.35
48390;BME280;34643;47.964;7.982;2023-01-27T02:15:36;96742.53;;;15.61;57.49
48390;BME280;34643;47.964;7.982;2023-01-27T02:30:51;96741.09;;;15.56;57.34
48390;BME280;34643;47.964;7.982;2023-01-27T02:35:56;96741.72;;;15.60;57.25
48390;BME280;34643;47.964;7.982;2023-01-27T02:41:00;96746.06;;;15.59;57.20
48390;BME280;34643;47.964;7.982;2023-01-27T02:46:03;96734.72;;;15.61;57.23
48390;BME280;34643;47.964;7.982;2023-01-27T02:51:04;96721.91;;;15.57;57.19
48390;BME280;34643;47.964;7.982;2023-01-27T02:56:06;96735.66;;;15.59;57.24
48390;BME280;34643;47.964;7.982;2023-01-27T03:01:07;96745.25;;;15.59;57.35
48390;BME280;34643;47.964;7.982;2023-01-27T03:06:07;96740.84;;;15.59;57.03
48390;BME280;34643;47.964;7.982;2023-01-27T03:11:08;96743.69;;;15.56;57.26
48390;BME280;34643;47.964;7.982;2023-01-27T03:16:09;96745.44;;;15.56;57.32
48390;BME280;34643;47.964;7.982;2023-01-27T03:21:28;96736.81;;;15.55;57.25
48390;BME280;34643;47.964;7.982;2023-01-27T03:26:29;96739.31;;;15.57;57.05
48390;BME280;34643;47.964;7.982;2023-01-27T03:31:31;96738.16;;;15.61;57.34
48390;BME280;34643;47.964;7.982;2023-01-27T03:36:36;96740.75;;;15.61;57.35
48390;BME280;34643;47.964;7.982;2023-01-27T03:41:56;96741.63;;;15.62;57.27
48390;BME280;34643;47.964;7.982;2023-01-27T03:47:16;96743.34;;;15.61;57.30
48390;BME280;34643;47.964;7.982;2023-01-27T03:52:16;96739.00;;;15.62;57.24
48390;BME280;34643;47.964;7.982;2023-01-27T03:57:16;96732.75;;;15.64;57.43
48390;BME280;34643;47.964;7.982;2023-01-27T04:02:17;96745.97;;;15.61;57.40
48390;BME280;34643;47.964;7.982;2023-01-27T04:07:36;96744.31;;;15.60;57.67
48390;BME280;34643;47.964;7.982;2023-01-27T04:12:36;96766.03;;;15.59;57.40
48390;BME280;34643;47.964;7.982;2023-01-27T04:17:36;96767.94;;;15.57;57.33
48390;BME280;34643;47.964;7.982;2023-01-27T04:22:37;96766.25;;;15.56;57.35
48390;BME280;34643;47.964;7.982;2023-01-27T04:27:38;96764.59;;;15.55;57.52
48390;BME280;34643;47.964;7.982;2023-01-27T04:32:39;96750.72;;;15.54;57.33
48390;BME280;34643;47.964;7.982;2023-01-27T04:37:39;96744.81;;;15.52;57.57
48390;BME280;34643;47.964;7.982;2023-01-27T04:42:39;96753.25;;;15.56;57.55
48390;BME280;34643;47.964;7.982;2023-01-27T04:47:39;96755.63;;;15.59;57.41
48390;BME280;34643;47.964;7.982;2023-01-27T04:52:40;96747.84;;;15.59;57.39
48390;BME280;34643;47.964;7.982;2023-01-27T04:57:40;96739.94;;;15.61;57.39
48390;BME280;34643;47.964;7.982;2023-01-27T05:02:41;96738.16;;;15.61;57.37
48390;BME280;34643;47.964;7.982;2023-01-27T05:07:41;96749.19;;;15.65;57.53
48390;BME280;34643;47.964;7.982;2023-01-27T05:12:41;96763.44;;;15.72;57.36
48390;BME280;34643;47.964;7.982;2023-01-27T05:17:42;96756.59;;;15.71;57.19
48390;BME280;34643;47.964;7.982;2023-01-27T05:22:42;96757.41;;;15.71;57.40
48390;BME280;34643;47.964;7.982;2023-01-27T05:27:42;96754.53;;;15.89;58.15
48390;BME280;34643;47.964;7.982;2023-01-27T05:32:42;96779.06;;;11.43;48.08
48390;BME280;34643;47.964;7.982;2023-01-27T05:37:43;96797.28;;;10.11;47.83
48390;BME280;34643;47.964;7.982;2023-01-27T05:42:43;96788.22;;;9.42;46.62
48390;BME280;34643;47.964;7.982;2023-01-27T05:47:47;96795.97;;;9.00;46.58
48390;BME280;34643;47.964;7.982;2023-01-27T05:52:47;96787.13;;;10.27;46.69
48390;BME280;34643;47.964;7.982;2023-01-27T05:57:47;96786.88;;;12.89;46.75
48390;BME280;34643;47.964;7.982;2023-01-27T06:02:47;96782.59;;;13.64;46.12
48390;BME280;34643;47.964;7.982;2023-01-27T06:07:48;96772.97;;;13.95;46.80
48390;BME280;34643;47.964;7.982;2023-01-27T06:12:48;96776.13;;;14.15;47.56
48390;BME280;34643;47.964;7.982;2023-01-27T06:17:48;96778.88;;;14.26;48.23
48390;BME280;34643;47.964;7.982;2023-01-27T06:22:49;96786.00;;;14.37;48.58
48390;BME280;34643;47.964;7.982;2023-01-27T06:27:53;96785.44;;;14.46;48.82
48390;BME280;34643;47.964;7.982;2023-01-27T06:32:53;96789.50;;;14.50;49.34
48390;BME280;34643;47.964;7.982;2023-01-27T06:37:55;96788.47;;;14.53;49.66
48390;BME280;34643;47.964;7.982;2023-01-27T06:42:56;96782.28;;;14.55;49.98
48390;BME280;34643;47.964;7.982;2023-01-27T06:47:58;96796.09;;;14.56;50.22
48390;BME280;34643;47.964;7.982;2023-01-27T06:52:59;96791.72;;;14.56;50.56
48390;BME280;34643;47.964;7.982;2023-01-27T06:58:00;96802.97;;;14.57;50.73
48390;BME280;34643;47.964;7.982;2023-01-27T07:03:01;96807.31;;;14.56;50.95
48390;BME280;34643;47.964;7.982;2023-01-27T07:08:02;96803.16;;;14.54;50.97
48390;BME280;34643;47.964;7.982;2023-01-27T07:13:02;96810.84;;;14.55;51.42
48390;BME280;34643;47.964;7.982;2023-01-27T07:18:03;96819.56;;;14.54;51.61
48390;BME280;34643;47.964;7.982;2023-01-27T07:23:04;96828.38;;;14.52;51.88
48390;BME280;34643;47.964;7.982;2023-01-27T07:28:04;96824.94;;;14.51;51.71
48390;BME280;34643;47.964;7.982;2023-01-27T07:33:05;96837.19;;;14.49;51.97
48390;BME280;34643;47.964;7.982;2023-01-27T07:38:06;96842.38;;;14.49;51.98
48390;BME280;34643;47.964;7.982;2023-01-27T07:43:06;96835.63;;;14.47;52.24
48390;BME280;34643;47.964;7.982;2023-01-27T07:48:08;96845.19;;;14.46;52.06
48390;BME280;34643;47.964;7.982;2023-01-27T07:53:09;96841.72;;;14.45;52.43
48390;BME280;34643;47.964;7.982;2023-01-27T07:58:09;96835.72;;;14.45;52.34
48390;BME280;34643;47.964;7.982;2023-01-27T08:03:15;96835.88;;;14.42;52.63
48390;BME280;34643;47.964;7.982;2023-01-27T08:08:19;96830.69;;;14.42;52.44
48390;BME280;34643;47.964;7.982;2023-01-27T08:13:19;96832.00;;;14.49;52.40
48390;BME280;34643;47.964;7.982;2023-01-27T08:18:20;96846.25;;;14.56;52.23
48390;BME280;34643;47.964;7.982;2023-01-27T08:23:20;96859.84;;;14.61;52.35
48390;BME280;34643;47.964;7.982;2023-01-27T08:28:21;96862.25;;;14.64;52.31
48390;BME280;34643;47.964;7.982;2023-01-27T08:33:22;96870.03;;;14.64;52.60
48390;BME280;34643;47.964;7.982;2023-01-27T08:38:23;96875.34;;;14.63;52.70
48390;BME280;34643;47.964;7.982;2023-01-27T08:43:23;96886.56;;;14.63;52.78
48390;BME280;34643;47.964;7.982;2023-01-27T08:48:23;96889.16;;;14.63;52.46
48390;BME280;34643;47.964;7.982;2023-01-27T08:53:24;96876.38;;;14.60;52.89
48390;BME280;34643;47.964;7.982;2023-01-27T08:58:25;96876.47;;;14.59;52.93
48390;BME280;34643;47.964;7.982;2023-01-27T09:03:25;96876.53;;;14.57;52.91
48390;BME280;34643;47.964;7.982;2023-01-27T09:08:25;96874.84;;;14.56;53.02
48390;BME280;34643;47.964;7.982;2023-01-27T09:13:26;96874.00;;;14.56;53.09
48390;BME280;34643;47.964;7.982;2023-01-27T09:18:27;96868.16;;;14.52;53.00
48390;BME280;34643;47.964;7.982;2023-01-27T09:23:27;96875.13;;;14.52;53.05
48390;BME280;34643;47.964;7.982;2023-01-27T09:28:27;96888.94;;;14.52;53.18
48390;BME280;34643;47.964;7.982;2023-01-27T09:33:28;96884.66;;;14.51;53.30
48390;BME280;34643;47.964;7.982;2023-01-27T09:38:29;96890.06;;;14.48;53.33
48390;BME280;34643;47.964;7.982;2023-01-27T09:48:34;96892.66;;;14.48;53.28
48390;BME280;34643;47.964;7.982;2023-01-27T10:29:34;96904.56;;;14.67;53.48
48390;BME280;34643;47.964;7.982;2023-01-27T10:34:42;96887.41;;;14.64;53.78
48390;BME280;34643;47.964;7.982;2023-01-27T10:50:16;96878.97;;;14.60;53.39
48390;BME280;34643;47.964;7.982;2023-01-27T10:55:19;96881.56;;;14.60;53.65
48390;BME280;34643;47.964;7.982;2023-01-27T11:05:29;96866.13;;;14.57;53.80
48390;BME280;34643;47.964;7.982;2023-01-27T11:10:40;96847.13;;;14.57;53.59
48390;BME280;34643;47.964;7.982;2023-01-27T11:16:03;96840.25;;;14.56;53.73
48390;BME280;34643;47.964;7.982;2023-01-27T11:21:04;96862.88;;;14.54;53.88
48390;BME280;34643;47.964;7.982;2023-01-27T11:26:11;96888.94;;;14.52;53.90
48390;BME280;34643;47.964;7.982;2023-01-27T11:31:27;96905.44;;;14.51;53.72
48390;BME280;34643;47.964;7.982;2023-01-27T11:36:34;96890.72;;;14.52;53.73
48390;BME280;34643;47.964;7.982;2023-01-27T11:41:36;96896.00;;;14.50;53.79
48390;BME280;34643;47.964;7.982;2023-01-27T11:46:37;96881.97;;;14.53;54.13
48390;BME280;34643;47.964;7.982;2023-01-27T11:51:38;96881.34;;;14.63;53.50
48390;BME280;34643;47.964;7.982;2023-01-27T11:56:39;96867.69;;;14.74;53.53
48390;BME280;34643;47.964;7.982;2023-01-27T12:02:25;96871.31;;;14.86;53.32
48390;BME280;34643;47.964;7.982;2023-01-27T12:07:09;96867.47;;;14.92;53.36
48390;BME280;34643;47.964;7.982;2023-01-27T12:17:14;96858.09;;;15.04;53.55
48390;BME280;34643;47.964;7.982;2023-01-27T12:22:39;96838.75;;;15.08;53.56
48390;BME280;34643;47.964;7.982;2023-01-27T12:27:39;96825.38;;;15.14;53.63
48390;BME280;34643;47.964;7.982;2023-01-27T12:32:45;96823.50;;;15.16;53.67
48390;BME280;34643;47.964;7.982;2023-01-27T12:37:46;96814.56;;;15.20;53.48
48390;BME280;34643;47.964;7.982;2023-01-27T12:42:48;96825.50;;;15.25;53.67
48390;BME280;34643;47.964;7.982;2023-01-27T12:48:04;96831.53;;;15.26;53.73
48390;BME280;34643;47.964;7.982;2023-01-27T13:03:30;96840.41;;;15.36;53.65
48390;BME280;34643;47.964;7.982;2023-01-27T13:08:35;96838.63;;;15.36;53.80
48390;BME280;34643;47.964;7.982;2023-01-27T13:13:37;96829.09;;;15.37;53.96
48390;BME280;34643;47.964;7.982;2023-01-27T13:18:53;96816.91;;;15.37;53.87
48390;BME280;34643;47.964;7.982;2023-01-27T13:23:53;96826.25;;;15.40;53.81
48390;BME280;34643;47.964;7.982;2023-01-27T13:28:56;96843.25;;;15.46;53.85
48390;BME280;34643;47.964;7.982;2023-01-27T13:34:07;96851.97;;;15.45;53.90
48390;BME280;34643;47.964;7.982;2023-01-27T13:39:13;96834.59;;;15.45;53.74
48390;BME280;34643;47.964;7.982;2023-01-27T13:49:24;96837.94;;;15.47;53.88
48390;BME280;34643;47.964;7.982;2023-01-27T13:54:29;96843.88;;;15.49;53.72
48390;BME280;34643;47.964;7.982;2023-01-27T14:04:36;96843.03;;;15.49;53.94
48390;BME280;34643;47.964;7.982;2023-01-27T14:09:50;96837.84;;;15.49;53.92
48390;BME280;34643;47.964;7.982;2023-01-27T14:30:24;96869.59;;;15.54;53.89
48390;BME280;34643;47.964;7.982;2023-01-27T14:40:31;96880.72;;;15.56;53.76
48390;BME280;34643;47.964;7.982;2023-01-27T14:51:18;96885.19;;;15.54;53.96
48390;BME280;34643;47.964;7.982;2023-01-27T14:56:25;96894.78;;;15.53;53.99
48390;BME280;34643;47.964;7.982;2023-01-27T15:06:53;96891.34;;;15.53;53.84
48390;BME280;34643;47.964;7.982;2023-01-27T15:17:24;96895.78;;;15.51;53.82
48390;BME280;34643;47.964;7.982;2023-01-27T15:27:30;96898.28;;;15.52;53.85
48390;BME280;34643;47.964;7.982;2023-01-27T15:32:34;96896.56;;;15.53;54.02
48390;BME280;34643;47.964;7.982;2023-01-27T15:37:35;96891.34;;;15.53;53.90
48390;BME280;34643;47.964;7.982;2023-01-27T15:48:00;96883.72;;;15.50;53.91
48390;BME280;34643;47.964;7.982;2023-01-27T15:53:12;96898.63;;;15.48;53.96
48390;BME280;34643;47.964;7.982;2023-01-27T16:03:27;96910.25;;;15.42;54.10
48390;BME280;34643;47.964;7.982;2023-01-27T16:08:29;96904.41;;;15.38;54.14
48390;BME280;34643;47.964;7.982;2023-01-27T16:13:33;96923.72;;;15.34;53.91
48390;BME280;34643;47.964;7.982;2023-01-27T16:18:42;96923.00;;;15.32;54.24
48390;BME280;34643;47.964;7.982;2023-01-27T16:23:51;96932.13;;;15.25;54.27
48390;BME280;34643;47.964;7.982;2023-01-27T16:28:58;96941.78;;;15.23;54.18
48390;BME280;34643;47.964;7.982;2023-01-27T16:34:00;96944.66;;;15.18;54.18
48390;BME280;34643;47.964;7.982;2023-01-27T16:39:03;96953.59;;;15.14;54.44
48390;BME280;34643;47.964;7.982;2023-01-27T16:44:23;96957.25;;;15.12;54.40
48390;BME280;34643;47.964;7.982;2023-01-27T16:49:28;96960.03;;;15.09;54.25
48390;BME280;34643;47.964;7.982;2023-01-27T16:54:33;96948.97;;;15.05;54.39
48390;BME280;34643;47.964;7.982;2023-01-27T16:59:36;96950.06;;;15.01;54.29
48390;BME280;34643;47.964;7.982;2023-01-27T17:04:37;96950.19;;;14.99;54.30
48390;BME280;34643;47.964;7.982;2023-01-27T17:09:41;96954.75;;;14.96;54.32
48390;BME280;34643;47.964;7.982;2023-01-27T17:14:42;96960.03;;;14.94;54.37
48390;BME280;34643;47.964;7.982;2023-01-27T17:19:45;96976.72;;;14.90;54.50
48390;BME280;34643;47.964;7.982;2023-01-27T17:24:50;96972.66;;;14.86;54.38
48390;BME280;34643;47.964;7.982;2023-01-27T17:30:05;96970.06;;;14.86;54.46
48390;BME280;34643;47.964;7.982;2023-01-27T17:35:17;96980.00;;;14.79;54.42
48390;BME280;34643;47.964;7.982;2023-01-27T17:40:19;96984.28;;;14.80;54.57
48390;BME280;34643;47.964;7.982;2023-01-27T17:50:21;96992.41;;;14.74;54.60
48390;BME280;34643;47.964;7.982;2023-01-27T17:55:23;96983.06;;;14.72;54.68
48390;BME280;34643;47.964;7.982;2023-01-27T18:00:28;96994.66;;;14.80;54.39
48390;BME280;34643;47.964;7.982;2023-01-27T18:05:31;97003.50;;;14.92;54.17
48390;BME280;34643;47.964;7.982;2023-01-27T18:20:36;97008.03;;;15.17;54.05
48390;BME280;34643;47.964;7.982;2023-01-27T18:25:37;97017.19;;;15.23;53.94
48390;BME280;34643;47.964;7.982;2023-01-27T18:30:43;97019.41;;;15.29;53.91
48390;BME280;34643;47.964;7.982;2023-01-27T18:35:54;97029.63;;;15.32;53.92
48390;BME280;34643;47.964;7.982;2023-01-27T18:40:54;97033.69;;;15.36;54.05
48390;BME280;34643;47.964;7.982;2023-01-27T18:46:09;97043.91;;;15.39;54.04
48390;BME280;34643;47.964;7.982;2023-01-27T18:51:13;97045.59;;;15.40;53.97
48390;BME280;34643;47.964;7.982;2023-01-27T18:56:14;97040.75;;;15.49;54.04
48390;BME280;34643;47.964;7.982;2023-01-27T19:01:17;97041.97;;;15.70;54.58
48390;BME280;34643;47.964;7.982;2023-01-27T19:06:18;97034.78;;;16.03;55.41
48390;BME280;34643;47.964;7.982;2023-01-27T19:11:19;97040.81;;;16.03;56.44
48390;BME280;34643;47.964;7.982;2023-01-27T19:16:19;97040.56;;;15.93;55.87
48390;BME280;34643;47.964;7.982;2023-01-27T19:21:20;97047.84;;;15.88;56.29
48390;BME280;34643;47.964;7.982;2023-01-27T19:26:21;97049.81;;;15.85;56.58
48390;BME280;34643;47.964;7.982;2023-01-27T19:31:22;97063.88;;;15.95;56.56
48390;BME280;34643;47.964;7.982;2023-01-27T19:36:24;97061.28;;;15.95;56.62
48390;BME280;34643;47.964;7.982;2023-01-27T19:41:26;97061.28;;;15.95;56.54
48390;BME280;34643;47.964;7.982;2023-01-27T19:46:27;97065.56;;;15.96;56.49
48390;BME280;34643;47.964;7.982;2023-01-27T19:51:27;97062.00;;;15.97;56.67
48390;BME280;34643;47.964;7.982;2023-01-27T19:56:28;97052.94;;;15.90;56.63
48390;BME280;34643;47.964;7.982;2023-01-27T20:01:29;97055.00;;;15.85;56.74
48390;BME280;34643;47.964;7.982;2023-01-27T20:06:29;97055.75;;;15.87;56.99
48390;BME280;34643;47.964;7.982;2023-01-27T20:16:36;97068.53;;;15.90;56.77
48390;BME280;34643;47.964;7.982;2023-01-27T20:21:36;97066.91;;;15.89;56.93
48390;BME280;34643;47.964;7.982;2023-01-27T20:26:37;97078.88;;;15.91;56.75
48390;BME280;34643;47.964;7.982;2023-01-27T20:31:37;97073.47;;;15.94;56.84
48390;BME280;34643;47.964;7.982;2023-01-27T20:36:37;97087.41;;;15.93;56.78
48390;BME280;34643;47.964;7.982;2023-01-27T20:41:37;97088.16;;;15.95;56.78
48390;BME280;34643;47.964;7.982;2023-01-27T20:46:38;97079.50;;;15.95;56.64
48390;BME280;34643;47.964;7.982;2023-01-27T20:51:38;97084.34;;;16.01;56.66
48390;BME280;34643;47.964;7.982;2023-01-27T20:56:39;97088.72;;;16.01;56.60
48390;BME280;34643;47.964;7.982;2023-01-27T21:01:39;97086.94;;;16.01;56.85
48390;BME280;34643;47.964;7.982;2023-01-27T21:06:39;97091.59;;;15.96;56.95
48390;BME280;34643;47.964;7.982;2023-01-27T21:11:40;97090.88;;;15.94;56.96
48390;BME280;34643;47.964;7.982;2023-01-27T21:16:40;97087.22;;;15.96;56.97
48390;BME280;34643;47.964;7.982;2023-01-27T21:21:40;97089.91;;;15.95;57.00
48390;BME280;34643;47.964;7.982;2023-01-27T21:26:41;97088.03;;;15.97;56.91
48390;BME280;34643;47.964;7.982;2023-01-27T21:31:41;97088.81;;;15.99;56.94
48390;BME280;34643;47.964;7.982;2023-01-27T21:36:42;97096.41;;;16.02;56.95
48390;BME280;34643;47.964;7.982;2023-01-27T21:41:43;97092.59;;;16.08;57.15
48390;BME280;34643;47.964;7.982;2023-01-27T21:46:52;97099.56;;;16.07;56.86
48390;BME280;34643;47.964;7.982;2023-01-27T21:51:52;97111.66;;;16.08;57.05
48390;BME280;34643;47.964;7.982;2023-01-27T21:56:52;97092.47;;;16.09;57.14
48390;BME280;34643;47.964;7.982;2023-01-27T22:01:53;97085.22;;;16.14;56.88
48390;BME280;34643;47.964;7.982;2023-01-27T22:06:54;97086.16;;;16.13;57.23
48390;BME280;34643;47.964;7.982;2023-01-27T22:11:54;97088.84;;;16.12;57.33
48390;BME280;34643;47.964;7.982;2023-01-27T22:16:54;97098.44;;;16.11;57.21
48390;BME280;34643;47.964;7.982;2023-01-27T22:21:55;97087.38;;;16.08;57.32
48390;BME280;34643;47.964;7.982;2023-01-27T22:26:55;97081.03;;;16.12;57.22
48390;BME280;34643;47.964;7.982;2023-01-27T22:31:55;97085.44;;;16.11;57.17
48390;BME280;34643;47.964;7.982;2023-01-27T22:36:56;97085.63;;;16.08;57.67
48390;BME280;34643;47.964;7.982;2023-01-27T22:41:56;97094.16;;;16.10;57.65
48390;BME280;34643;47.964;7.982;2023-01-27T22:46:56;97098.53;;;16.10;57.67
48390;BME280;34643;47.964;7.982;2023-01-27T22:51:56;97089.03;;;16.09;57.78
48390;BME280;34643;47.964;7.982;2023-01-27T22:56:57;97083.00;;;16.08;57.67
48390;BME280;34643;47.964;7.982;2023-01-27T23:01:57;97087.88;;;16.00;57.52
48390;BME280;34643;47.964;7.982;2023-01-27T23:06:57;97087.03;;;16.00;57.24
48390;BME280;34643;47.964;7.982;2023-01-27T23:11:57;97082.97;;;15.95;57.75
48390;BME280;34643;47.964;7.982;2023-01-27T23:16:58;97082.84;;;15.97;57.32
48390;BME280;34643;47.964;7.982;2023-01-27T23:21:58;97089.63;;;16.00;57.08
48390;BME280;34643;47.964;7.982;2023-01-27T23:26:58;97082.66;;;16.00;57.12
48390;BME280;34643;47.964;7.982;2023-01-27T23:31:59;97084.34;;;16.01;56.71
48390;BME280;34643;47.964;7.982;2023-01-27T23:36:59;97073.19;;;15.99;56.95
48390;BME280;34643;47.964;7.982;2023-01-27T23:41:59;97073.81;;;16.03;57.00
48390;BME280;34643;47.964;7.982;2023-01-27T23:47:00;97079.78;;;16.05;56.72
48390;BME280;34643;47.964;7.982;2023-01-27T23:52:00;97090.19;;;16.05;56.56
48390;BME280;34643;47.964;7.982;2023-01-27T23:57:00;97083.38;;;16.02;56.32
